Time;durP1;ratioP1;P1;durP2;ratioP2;P2;SDS_P1;SDS_P2;PMS_P1;PMS_P2;Temp;Humidity;BMP_temperature;BMP_pressure;BME280_temperature;BME280_humidity;BME280_pressure;Samples;Min_cycle;Max_cycle;Signal;HPM_P1;HPM_P2
2023/05/03 00:00:16;;;;;;;3.78;2.28;;;8.80;99.90;;;;;;5054577;28;20103;-75
2023/05/03 00:02:43;;;;;;;3.22;2.05;;;8.80;99.90;;;;;;5055983;28;20112;-76
2023/05/03 00:05:13;;;;;;;4.45;2.22;;;8.80;99.90;;;;;;5055491;28;20021;-75
2023/05/03 00:07:42;;;;;;;2.78;1.90;;;8.80;99.90;;;;;;5054674;28;20484;-76
2023/05/03 00:10:12;;;;;;;3.42;2.00;;;8.80;99.90;;;;;;5055164;28;20030;-76
2023/05/03 00:12:39;;;;;;;3.45;1.90;;;8.80;99.90;;;;;;5054304;28;20029;-75
2023/05/03 00:15:06;;;;;;;3.08;2.08;;;8.80;99.90;;;;;;5055433;28;20021;-76
2023/05/03 00:17:32;;;;;;;5.18;2.13;;;8.80;99.90;;;;;;5055913;28;20525;-76
2023/05/03 00:19:58;;;;;;;3.55;1.80;;;8.70;99.90;;;;;;5054172;28;20112;-76
2023/05/03 00:22:24;;;;;;;2.90;1.92;;;8.70;99.90;;;;;;5055355;28;20025;-76
2023/05/03 00:24:50;;;;;;;2.90;1.60;;;8.70;99.90;;;;;;5054913;28;20042;-76
2023/05/03 00:27:16;;;;;;;3.17;1.77;;;8.70;99.90;;;;;;5055361;28;20079;-75
2023/05/03 00:29:42;;;;;;;3.38;1.83;;;8.70;99.90;;;;;;5055416;28;20554;-76
2023/05/03 00:32:09;;;;;;;3.83;1.83;;;8.70;99.90;;;;;;5055409;28;20040;-76
2023/05/03 00:34:38;;;;;;;3.17;1.98;;;8.70;99.90;;;;;;5054890;28;20112;-76
2023/05/03 00:37:04;;;;;;;3.05;2.10;;;8.70;99.90;;;;;;5055065;28;20025;-76
2023/05/03 00:39:30;;;;;;;2.75;2.10;;;8.70;99.90;;;;;;5054774;28;20028;-76
2023/05/03 00:42:00;;;;;;;2.30;1.60;;;8.70;99.90;;;;;;5055568;28;20436;-76
2023/05/03 00:44:26;;;;;;;2.20;1.48;;;8.60;99.90;;;;;;5055179;28;20033;-76
2023/05/03 00:46:54;;;;;;;2.17;1.50;;;8.60;99.90;;;;;;5054908;28;20055;-75
2023/05/03 00:49:20;;;;;;;2.85;1.83;;;8.50;99.90;;;;;;5053489;28;20538;-75
2023/05/03 00:51:46;;;;;;;2.55;1.75;;;8.50;99.90;;;;;;5053618;28;20033;-75
2023/05/03 00:54:12;;;;;;;2.50;1.70;;;8.50;99.90;;;;;;5054456;28;20086;-76
2023/05/03 00:56:39;;;;;;;2.58;1.80;;;8.50;99.90;;;;;;5055055;28;20142;-75
2023/05/03 00:59:07;;;;;;;2.40;1.38;;;8.50;99.90;;;;;;5054646;28;20021;-76
2023/05/03 01:01:33;;;;;;;2.78;1.77;;;8.50;99.90;;;;;;5054878;28;20034;-76
2023/05/03 01:04:03;;;;;;;2.50;1.60;;;8.40;99.90;;;;;;5053373;28;20029;-75
2023/05/03 01:06:42;;;;;;;2.70;1.85;;;8.40;99.90;;;;;;5054593;28;20492;-75
2023/05/03 01:09:24;;;;;;;2.45;1.58;;;8.40;99.90;;;;;;5054420;28;20155;-75
2023/05/03 01:12:02;;;;;;;1.90;1.25;;;8.40;99.90;;;;;;5054602;28;20017;-76
2023/05/03 01:14:39;;;;;;;2.72;1.60;;;8.40;99.90;;;;;;5054320;28;20032;-75
2023/05/03 01:17:12;;;;;;;2.22;1.50;;;8.40;99.90;;;;;;5052998;28;20024;-75
2023/05/03 01:19:46;;;;;;;2.92;1.77;;;8.50;99.90;;;;;;5054395;28;20025;-75
2023/05/03 01:22:41;;;;;;;3.22;2.00;;;8.40;99.90;;;;;;5054481;28;20092;-76
2023/05/03 01:25:12;;;;;;;2.78;1.80;;;8.40;99.90;;;;;;5053884;28;20036;-76
2023/05/03 01:27:39;;;;;;;4.30;1.80;;;8.40;99.90;;;;;;5054225;28;20036;-76
2023/05/03 01:30:07;;;;;;;2.22;1.58;;;8.40;99.90;;;;;;5054166;28;20690;-75
2023/05/03 01:33:02;;;;;;;2.08;1.27;;;8.40;99.90;;;;;;5054329;28;20037;-76
2023/05/03 01:35:30;;;;;;;2.67;1.73;;;8.40;99.90;;;;;;5053745;28;20043;-76
2023/05/03 01:37:57;;;;;;;2.47;1.50;;;8.40;99.90;;;;;;5054120;28;20032;-76
2023/05/03 01:40:26;;;;;;;2.88;1.92;;;8.40;99.90;;;;;;5053487;28;20041;-75
2023/05/03 01:42:54;;;;;;;2.25;1.45;;;8.40;99.90;;;;;;5053884;28;20653;-75
2023/05/03 01:45:20;;;;;;;2.70;1.73;;;8.40;99.90;;;;;;5053760;28;20492;-75
2023/05/03 01:47:46;;;;;;;2.95;1.80;;;8.40;99.90;;;;;;5053867;28;20021;-76
2023/05/03 01:50:12;;;;;;;2.22;1.60;;;8.40;99.90;;;;;;5053876;28;20043;-76
2023/05/03 01:52:38;;;;;;;2.55;1.52;;;8.40;99.90;;;;;;5053750;28;20025;-75
2023/05/03 01:55:04;;;;;;;3.20;1.70;;;8.40;99.90;;;;;;5053325;28;20025;-75
2023/05/03 01:57:29;;;;;;;2.50;1.63;;;8.40;99.90;;;;;;5053627;28;20083;-75
2023/05/03 01:59:55;;;;;;;2.47;1.65;;;8.40;99.90;;;;;;5053830;28;20481;-76
2023/05/03 02:02:21;;;;;;;2.00;1.30;;;8.40;99.90;;;;;;5052436;28;20051;-75
2023/05/03 02:04:47;;;;;;;2.38;1.55;;;8.40;99.90;;;;;;5052611;28;20544;-75
2023/05/03 02:07:12;;;;;;;2.85;2.05;;;8.40;99.90;;;;;;5053728;28;20124;-76
2023/05/03 02:09:38;;;;;;;6.03;4.18;;;8.40;99.90;;;;;;5053291;28;20032;-75
2023/05/03 02:12:04;;;;;;;13.40;8.60;;;8.40;99.90;;;;;;5052161;28;20029;-75
2023/05/03 02:14:31;;;;;;;9.52;6.20;;;8.30;99.90;;;;;;5053892;28;20133;-75
2023/05/03 02:16:57;;;;;;;9.00;5.45;;;8.30;99.90;;;;;;5052260;28;20025;-75
2023/05/03 02:19:23;;;;;;;9.25;5.72;;;8.30;99.90;;;;;;5052097;28;20025;-75
2023/05/03 02:21:49;;;;;;;9.07;5.78;;;8.30;99.90;;;;;;5052704;28;20040;-75
2023/05/03 02:24:15;;;;;;;10.32;6.32;;;8.30;99.90;;;;;;5052801;28;20024;-75
2023/05/03 02:26:41;;;;;;;11.50;6.82;;;8.30;99.90;;;;;;5053280;28;20079;-76
2023/05/03 02:29:07;;;;;;;13.18;7.28;;;8.40;99.90;;;;;;5052031;28;20025;-75
2023/05/03 02:31:32;;;;;;;14.95;8.25;;;8.40;99.90;;;;;;5053120;28;20392;-76
2023/05/03 02:33:58;;;;;;;13.40;7.65;;;8.40;99.90;;;;;;5053374;28;20098;-75
2023/05/03 02:36:24;;;;;;;8.85;5.22;;;8.40;99.90;;;;;;5053100;28;20021;-76
2023/05/03 02:38:49;;;;;;;6.63;3.63;;;8.40;99.90;;;;;;5052884;28;20032;-75
2023/05/03 02:41:15;;;;;;;5.60;2.60;;;8.40;99.90;;;;;;5053219;28;20025;-76
2023/05/03 02:43:41;;;;;;;5.55;2.00;;;8.40;99.90;;;;;;5053144;28;20048;-76
2023/05/03 02:46:06;;;;;;;2.70;1.77;;;8.40;99.90;;;;;;5052978;28;20029;-76
2023/05/03 02:48:32;;;;;;;4.47;2.08;;;8.40;99.90;;;;;;5053222;28;20082;-76
2023/05/03 02:50:58;;;;;;;2.92;1.80;;;8.40;99.90;;;;;;5053037;28;20036;-75
2023/05/03 02:53:23;;;;;;;2.88;1.75;;;8.40;99.90;;;;;;5052142;28;20021;-76
2023/05/03 02:55:49;;;;;;;2.65;1.98;;;8.40;99.90;;;;;;5052336;28;20025;-75
2023/05/03 02:58:15;;;;;;;3.17;1.90;;;8.40;99.90;;;;;;5052790;28;20122;-76
2023/05/03 03:00:41;;;;;;;2.63;1.67;;;8.40;99.90;;;;;;5053266;28;20036;-76
2023/05/03 03:03:06;;;;;;;2.80;1.90;;;8.40;99.90;;;;;;5051773;28;20160;-76
2023/05/03 03:05:32;;;;;;;4.00;1.83;;;8.40;99.90;;;;;;5051834;28;20033;-76
2023/05/03 03:07:58;;;;;;;2.22;1.58;;;8.40;99.90;;;;;;5053131;28;20095;-76
2023/05/03 03:10:23;;;;;;;2.33;1.63;;;8.40;99.90;;;;;;5052777;28;20443;-76
2023/05/03 03:12:49;;;;;;;2.33;1.67;;;8.40;99.90;;;;;;5053074;28;20040;-76
2023/05/03 03:15:15;;;;;;;2.30;1.40;;;8.50;99.90;;;;;;5053765;28;20021;-76
2023/05/03 03:17:41;;;;;;;2.25;1.70;;;8.50;99.90;;;;;;5055657;28;20100;-75
2023/05/03 03:20:11;;;;;;;1.85;1.20;;;8.50;99.90;;;;;;5055530;28;20057;-75
2023/05/03 03:22:37;;;;;;;2.90;1.60;;;8.50;99.90;;;;;;5056739;28;20037;-75
2023/05/03 03:25:05;;;;;;;2.40;1.52;;;8.50;99.90;;;;;;5055060;28;20048;-76
2023/05/03 03:27:31;;;;;;;2.50;1.50;;;8.50;99.90;;;;;;5056454;28;20400;-76
2023/05/03 03:29:57;;;;;;;2.45;1.55;;;8.50;99.90;;;;;;5056313;28;20059;-75
2023/05/03 03:32:23;;;;;;;2.78;1.40;;;8.50;99.90;;;;;;5056381;28;20029;-76
2023/05/03 03:34:48;;;;;;;2.10;1.45;;;8.60;99.90;;;;;;5056310;28;20025;-75
2023/05/03 03:37:14;;;;;;;2.30;1.55;;;8.60;99.90;;;;;;5055192;28;20049;-76
2023/05/03 03:39:40;;;;;;;2.75;1.73;;;8.60;99.90;;;;;;5055819;28;20484;-75
2023/05/03 03:42:08;;;;;;;3.70;2.30;;;8.60;99.90;;;;;;5055117;28;20059;-75
2023/05/03 03:44:34;;;;;;;3.58;2.10;;;8.50;99.90;;;;;;5056168;28;20461;-75
2023/05/03 03:46:59;;;;;;;5.60;2.70;;;8.50;99.90;;;;;;5037993;28;20033;-76
2023/05/03 03:49:25;;;;;;;4.28;2.25;;;8.60;99.90;;;;;;5038352;28;20059;-76
2023/05/03 03:51:51;;;;;;;4.70;2.30;;;8.60;99.90;;;;;;5056100;28;20037;-76
2023/05/03 03:54:16;;;;;;;3.72;2.10;;;8.60;99.90;;;;;;5054304;28;20032;-75
2023/05/03 03:56:42;;;;;;;3.30;1.83;;;8.60;99.90;;;;;;5055631;28;20040;-76
2023/05/03 03:59:08;;;;;;;3.50;1.92;;;8.60;99.90;;;;;;5055596;28;20361;-76
2023/05/03 04:01:33;;;;;;;2.70;1.80;;;8.60;99.90;;;;;;5054752;28;20044;-76
2023/05/03 04:03:59;;;;;;;4.47;1.90;;;8.60;99.90;;;;;;5055656;28;20040;-76
2023/05/03 04:06:25;;;;;;;2.50;1.67;;;8.60;99.90;;;;;;5054831;28;20027;-76
2023/05/03 04:08:51;;;;;;;2.65;1.60;;;8.60;99.90;;;;;;5055133;28;20025;-75
2023/05/03 04:11:17;;;;;;;2.65;1.80;;;8.60;99.90;;;;;;5055618;28;20032;-76
2023/05/03 04:13:43;;;;;;;2.40;1.77;;;8.60;99.90;;;;;;5056191;28;20029;-75
2023/05/03 04:16:08;;;;;;;4.22;1.58;;;8.70;99.90;;;;;;5055061;28;20117;-75
2023/05/03 04:18:34;;;;;;;2.45;1.48;;;8.70;99.90;;;;;;5056740;28;20027;-75
2023/05/03 04:21:00;;;;;;;2.83;1.90;;;8.60;99.90;;;;;;5058320;28;20457;-75
2023/05/03 04:23:26;;;;;;;2.40;1.73;;;8.60;99.90;;;;;;5054464;28;20048;-75
2023/05/03 04:25:52;;;;;;;3.00;2.08;;;8.60;99.90;;;;;;5055660;28;20397;-76
2023/05/03 04:28:19;;;;;;;3.88;3.00;;;8.60;99.90;;;;;;5054124;28;20044;-75
2023/05/03 04:30:46;;;;;;;4.30;2.97;;;8.60;99.90;;;;;;5055979;28;20478;-75
2023/05/03 04:33:12;;;;;;;3.72;2.45;;;8.50;99.90;;;;;;5055542;28;20021;-76
2023/05/03 04:35:40;;;;;;;14.07;7.13;;;8.50;99.90;;;;;;5053851;28;20021;-76
2023/05/03 04:38:06;;;;;;;7.95;4.07;;;8.50;99.90;;;;;;5055709;28;20045;-76
2023/05/03 04:40:31;;;;;;;5.47;3.33;;;8.50;99.90;;;;;;5054991;28;20109;-76
2023/05/03 04:42:57;;;;;;;4.18;2.50;;;8.50;99.90;;;;;;5037228;28;20545;-76
2023/05/03 04:45:23;;;;;;;4.70;3.20;;;8.50;99.90;;;;;;5053779;28;20378;-76
2023/05/03 04:47:49;;;;;;;6.95;4.20;;;8.40;99.90;;;;;;5055372;28;20048;-76
2023/05/03 04:50:15;;;;;;;5.88;4.07;;;8.40;99.90;;;;;;5055424;28;20032;-76
2023/05/03 04:52:41;;;;;;;7.22;4.65;;;8.40;99.90;;;;;;5053761;28;20035;-76
2023/05/03 04:55:07;;;;;;;4.90;3.60;;;8.40;99.90;;;;;;5054432;28;20099;-76
2023/05/03 04:57:33;;;;;;;4.28;3.25;;;8.50;99.90;;;;;;5055051;28;20029;-76
2023/05/03 04:59:59;;;;;;;7.75;4.95;;;8.50;99.90;;;;;;5053908;28;20098;-76
2023/05/03 05:02:26;;;;;;;5.97;4.38;;;8.50;99.90;;;;;;5053549;28;20099;-76
2023/05/03 05:04:52;;;;;;;5.90;4.55;;;8.50;99.90;;;;;;5054997;28;20029;-76
2023/05/03 05:07:18;;;;;;;6.47;4.75;;;8.50;99.90;;;;;;5053726;28;20037;-76
2023/05/03 05:09:43;;;;;;;6.80;3.70;;;8.60;99.90;;;;;;5053418;28;20150;-76
2023/05/03 05:12:10;;;;;;;5.00;3.05;;;8.60;99.90;;;;;;5054553;28;20397;-76
2023/05/03 05:14:35;;;;;;;4.50;3.28;;;8.60;99.90;;;;;;5052003;28;20021;-76
2023/05/03 05:17:01;;;;;;;3.50;2.70;;;8.60;99.90;;;;;;5054291;28;20064;-76
2023/05/03 05:19:27;;;;;;;3.70;2.67;;;8.70;99.90;;;;;;5054440;28;20031;-76
2023/05/03 05:21:52;;;;;;;5.85;2.65;;;8.70;99.90;;;;;;5053392;28;20064;-76
2023/05/03 05:24:18;;;;;;;3.88;2.50;;;8.80;99.90;;;;;;5052653;28;20066;-76
2023/05/03 05:26:44;;;;;;;4.50;2.50;;;8.80;99.90;;;;;;5054932;28;20103;-76
2023/05/03 05:29:10;;;;;;;4.07;2.55;;;8.80;99.90;;;;;;5054120;28;20397;-76
2023/05/03 05:31:35;;;;;;;3.28;2.33;;;8.90;99.90;;;;;;5054370;28;20028;-76
2023/05/03 05:34:02;;;;;;;3.17;2.30;;;8.90;99.90;;;;;;5054506;28;20033;-76
2023/05/03 05:36:29;;;;;;;3.45;2.40;;;8.90;99.90;;;;;;5054297;28;20021;-76
2023/05/03 05:38:55;;;;;;;3.67;2.53;;;9.00;99.90;;;;;;5053053;28;20032;-76
2023/05/03 05:41:21;;;;;;;3.50;2.30;;;9.00;99.90;;;;;;5053807;28;20029;-76
2023/05/03 05:43:47;;;;;;;4.25;2.88;;;9.00;99.90;;;;;;5052868;28;20036;-77
2023/05/03 05:46:12;;;;;;;3.63;2.40;;;9.00;99.90;;;;;;5052688;28;20158;-77
2023/05/03 05:48:38;;;;;;;4.40;3.13;;;9.00;99.90;;;;;;5053013;28;20473;-77
2023/05/03 05:51:05;;;;;;;3.78;2.40;;;9.00;99.90;;;;;;5053706;28;20025;-76
2023/05/03 05:53:30;;;;;;;4.22;2.70;;;9.00;99.90;;;;;;5052807;28;20436;-76
2023/05/03 05:55:56;;;;;;;3.70;2.65;;;9.00;99.90;;;;;;5051901;28;20025;-76
2023/05/03 05:58:22;;;;;;;5.68;2.45;;;9.00;99.90;;;;;;5051786;28;20113;-76
2023/05/03 06:00:47;;;;;;;4.20;2.40;;;9.10;99.90;;;;;;5051952;28;20078;-77
2023/05/03 06:03:14;;;;;;;4.13;2.75;;;9.10;99.90;;;;;;5053104;28;20032;-76
2023/05/03 06:05:40;;;;;;;4.38;3.00;;;9.20;99.90;;;;;;5051925;28;20120;-77
2023/05/03 06:08:07;;;;;;;3.83;2.60;;;9.20;99.90;;;;;;5052321;28;20036;-76
2023/05/03 06:10:33;;;;;;;4.93;3.00;;;9.40;99.90;;;;;;5068628;28;20032;-76
2023/05/03 06:12:59;;;;;;;5.68;2.90;;;9.40;99.90;;;;;;5053650;28;20492;-76
2023/05/03 06:15:25;;;;;;;4.53;3.25;;;9.50;99.90;;;;;;5052158;28;20052;-77
2023/05/03 06:17:50;;;;;;;3.33;2.53;;;9.60;99.90;;;;;;5068762;28;20052;-77
2023/05/03 06:20:17;;;;;;;4.97;3.35;;;9.60;99.90;;;;;;5053632;28;20033;-76
2023/05/03 06:22:43;;;;;;;5.15;3.42;;;9.70;99.90;;;;;;5053381;28;20040;-76
2023/05/03 06:25:09;;;;;;;7.38;4.32;;;9.70;99.90;;;;;;5052951;28;20037;-76
2023/05/03 06:27:37;;;;;;;5.32;3.97;;;9.80;99.90;;;;;;5052340;28;20029;-76
2023/05/03 06:30:03;;;;;;;7.32;4.60;;;9.80;99.90;;;;;;5053197;28;20116;-76
2023/05/03 06:32:29;;;;;;;5.90;4.43;;;9.90;99.90;;;;;;5053465;28;20108;-77
2023/05/03 06:34:55;;;;;;;5.50;3.88;;;10.00;99.90;;;;;;5053088;28;20098;-76
2023/05/03 06:37:21;;;;;;;7.82;4.93;;;10.10;99.90;;;;;;5053221;28;20100;-77
2023/05/03 06:39:49;;;;;;;6.45;4.30;;;10.20;99.90;;;;;;5051622;28;20374;-77
2023/05/03 06:42:14;;;;;;;8.35;4.68;;;10.30;99.90;;;;;;5053091;28;20053;-77
2023/05/03 06:44:41;;;;;;;6.22;4.65;;;10.40;99.90;;;;;;5053017;28;20378;-77
2023/05/03 06:47:07;;;;;;;7.57;4.53;;;10.50;99.90;;;;;;5053468;28;20028;-77
2023/05/03 06:49:33;;;;;;;7.10;4.50;;;10.50;99.90;;;;;;5053098;28;20033;-77
2023/05/03 06:51:59;;;;;;;8.65;4.75;;;10.40;99.90;;;;;;5055956;28;20029;-77
2023/05/03 06:54:24;;;;;;;8.23;5.20;;;10.40;99.90;;;;;;5055705;28;20035;-76
2023/05/03 06:56:50;;;;;;;6.60;4.50;;;10.40;99.90;;;;;;5055614;28;20033;-77
2023/05/03 06:59:16;;;;;;;6.38;5.07;;;10.40;99.90;;;;;;5056724;28;20021;-77
2023/05/03 07:01:42;;;;;;;6.50;4.55;;;10.40;99.90;;;;;;5056837;28;20021;-77
2023/05/03 07:04:07;;;;;;;7.32;4.78;;;10.40;99.90;;;;;;5056720;28;20074;-77
2023/05/03 07:06:33;;;;;;;7.55;5.07;;;10.50;99.90;;;;;;5056818;28;20401;-76
2023/05/03 07:08:59;;;;;;;7.22;5.18;;;10.50;99.90;;;;;;5055622;28;20163;-76
2023/05/03 07:11:25;;;;;;;8.10;5.68;;;10.60;99.90;;;;;;5056432;28;20025;-76
2023/05/03 07:13:54;;;;;;;6.20;4.63;;;10.70;99.90;;;;;;5056342;28;20021;-76
2023/05/03 07:16:20;;;;;;;7.55;5.97;;;10.80;99.90;;;;;;5057723;28;20496;-76
2023/05/03 07:18:46;;;;;;;9.27;6.68;;;10.90;99.90;;;;;;5057888;28;20387;-76
2023/05/03 07:21:13;;;;;;;7.90;5.60;;;10.90;99.90;;;;;;5056435;28;20074;-76
2023/05/03 07:23:39;;;;;;;8.38;6.40;;;11.00;99.90;;;;;;5057442;28;20029;-76
2023/05/03 07:26:06;;;;;;;8.15;5.80;;;11.00;99.90;;;;;;5055480;28;20041;-76
2023/05/03 07:28:31;;;;;;;8.50;6.00;;;11.00;99.90;;;;;;5057102;28;20059;-77
2023/05/03 07:30:58;;;;;;;8.43;5.15;;;11.10;99.90;;;;;;5056128;28;20389;-76
2023/05/03 07:33:24;;;;;;;9.50;6.18;;;11.10;99.90;;;;;;5056823;28;20108;-76
2023/05/03 07:35:50;;;;;;;7.40;5.55;;;11.20;99.90;;;;;;5055586;28;20100;-77
2023/05/03 07:38:16;;;;;;;10.13;5.35;;;11.20;99.90;;;;;;5057057;28;20496;-76
2023/05/03 07:40:42;;;;;;;8.02;5.93;;;11.30;99.90;;;;;;5056479;28;20057;-77
2023/05/03 07:43:11;;;;;;;8.48;5.82;;;11.30;99.90;;;;;;5055404;28;20053;-76
2023/05/03 07:45:37;;;;;;;7.35;5.97;;;11.40;99.90;;;;;;5056430;28;20481;-76
2023/05/03 07:48:03;;;;;;;6.38;5.10;;;11.40;99.90;;;;;;5056621;28;20041;-77
2023/05/03 07:50:30;;;;;;;8.85;5.78;;;11.40;99.90;;;;;;5054961;28;20052;-77
2023/05/03 07:52:56;;;;;;;5.82;4.55;;;11.50;99.90;;;;;;5054888;28;20504;-77
2023/05/03 07:55:22;;;;;;;8.77;5.18;;;11.50;99.90;;;;;;5055883;28;20099;-76
2023/05/03 07:57:47;;;;;;;7.20;5.25;;;11.50;99.90;;;;;;5056146;28;20028;-76
2023/05/03 08:00:16;;;;;;;6.65;4.80;;;11.60;99.90;;;;;;5055574;28;20037;-77
2023/05/03 08:02:41;;;;;;;8.20;5.45;;;11.70;99.90;;;;;;5054486;28;20029;-77
2023/05/03 08:05:09;;;;;;;7.85;5.28;;;11.70;99.90;;;;;;5054948;28;20040;-76
2023/05/03 08:07:34;;;;;;;8.52;4.97;;;11.70;99.90;;;;;;5056596;28;20396;-75
2023/05/03 08:10:01;;;;;;;8.73;5.20;;;11.60;99.90;;;;;;5055921;28;20025;-76
2023/05/03 08:12:27;;;;;;;7.68;5.38;;;11.60;99.90;;;;;;5056333;28;20048;-76
2023/05/03 08:14:54;;;;;;;10.63;5.40;;;11.60;99.90;;;;;;5053950;28;20366;-76
2023/05/03 08:17:21;;;;;;;5.75;4.75;;;11.60;99.90;;;;;;5053410;28;20025;-76
2023/05/03 08:19:47;;;;;;;6.35;4.97;;;11.70;99.90;;;;;;5053959;28;20052;-75
2023/05/03 08:22:13;;;;;;;7.15;5.50;;;11.60;99.90;;;;;;5053483;28;20050;-76
2023/05/03 08:24:39;;;;;;;8.02;4.60;;;11.60;99.90;;;;;;5053243;28;20025;-76
2023/05/03 08:27:06;;;;;;;7.30;4.72;;;11.60;99.90;;;;;;5053333;28;20029;-76
2023/05/03 08:29:32;;;;;;;6.00;4.25;;;11.60;99.90;;;;;;5054135;28;20044;-76
2023/05/03 08:31:58;;;;;;;8.13;4.50;;;11.50;99.90;;;;;;5055516;28;20477;-76
2023/05/03 08:34:24;;;;;;;5.90;4.10;;;11.50;99.90;;;;;;5055286;28;20029;-76
2023/05/03 08:36:51;;;;;;;6.93;4.95;;;11.50;99.90;;;;;;5055823;28;20021;-76
2023/05/03 08:39:17;;;;;;;6.38;4.45;;;11.60;99.90;;;;;;5055321;28;20029;-76
2023/05/03 08:41:43;;;;;;;7.68;4.93;;;11.60;99.90;;;;;;5051955;28;20439;-76
2023/05/03 08:44:12;;;;;;;9.00;5.70;;;11.70;99.90;;;;;;5054124;28;20104;-76
2023/05/03 08:46:37;;;;;;;7.60;5.10;;;11.70;99.90;;;;;;5053452;28;20047;-76
2023/05/03 08:49:06;;;;;;;9.32;5.18;;;11.70;99.90;;;;;;5053309;28;20033;-75
2023/05/03 08:51:33;;;;;;;8.02;4.93;;;11.70;99.90;;;;;;5038422;28;20529;-76
2023/05/03 08:53:59;;;;;;;6.63;4.35;;;11.70;99.90;;;;;;5035328;28;20026;-76
2023/05/03 08:56:32;;;;;;;5.43;3.80;;;11.80;99.90;;;;;;5033787;28;20022;-76
2023/05/03 08:59:06;;;;;;;4.60;3.63;;;11.80;99.90;;;;;;5033895;28;20075;-76
2023/05/03 09:01:33;;;;;;;4.28;3.30;;;11.90;99.90;;;;;;5035257;28;20384;-76
2023/05/03 09:03:58;;;;;;;4.47;3.33;;;12.00;99.90;;;;;;5042370;28;20021;-76
2023/05/03 09:06:25;;;;;;;4.75;3.55;;;12.00;99.90;;;;;;5053805;28;20036;-76
2023/05/03 09:08:51;;;;;;;5.47;3.22;;;12.10;99.90;;;;;;5055002;28;20029;-76
2023/05/03 09:11:37;;;;;;;5.05;3.05;;;12.10;99.90;;;;;;5054718;28;20033;-76
2023/05/03 09:14:15;;;;;;;4.93;3.20;;;12.10;99.90;;;;;;5054572;28;20496;-76
2023/05/03 09:16:43;;;;;;;4.03;3.00;;;12.10;99.90;;;;;;5055141;28;20488;-76
2023/05/03 09:19:11;;;;;;;4.35;3.00;;;12.10;99.90;;;;;;5054849;28;20445;-76
2023/05/03 09:21:42;;;;;;;4.47;3.25;;;12.10;99.90;;;;;;5054528;28;20108;-76
2023/05/03 09:24:11;;;;;;;;;;;12.20;99.90;;;;;;5055073;28;20032;-76
2023/05/03 09:26:38;;;;;;;5.68;3.17;;;12.20;99.90;;;;;;5053188;28;19919;-76
2023/05/03 09:29:04;;;;;;;4.85;3.08;;;12.20;99.90;;;;;;5054528;28;20032;-76
2023/05/03 09:31:32;;;;;;;5.03;3.13;;;12.20;99.90;;;;;;5054377;28;20025;-76
2023/05/03 09:33:58;;;;;;;4.40;3.00;;;12.30;99.90;;;;;;5054109;28;20017;-76
2023/05/03 09:36:24;;;;;;;5.93;3.13;;;12.30;99.90;;;;;;5054270;28;20055;-75
2023/05/03 09:38:51;;;;;;;4.80;3.50;;;12.40;99.90;;;;;;5052943;28;20027;-76
2023/05/03 09:41:30;;;;;;;7.20;3.10;;;12.50;99.90;;;;;;5053761;28;20512;-76
2023/05/03 09:44:01;;;;;;;4.68;3.17;;;12.50;99.90;;;;;;5054055;28;20029;-76
2023/05/03 09:46:28;;;;;;;3.60;3.03;;;12.50;99.90;;;;;;5054460;28;20511;-75
2023/05/03 09:48:56;;;;;;;4.35;3.50;;;12.60;99.90;;;;;;5053882;28;20033;-75
2023/05/03 09:51:23;;;;;;;5.18;3.90;;;12.60;99.90;;;;;;5053836;28;20078;-76
2023/05/03 09:53:52;;;;;;;6.43;3.80;;;12.60;99.90;;;;;;5054040;28;20052;-75
2023/05/03 09:56:19;;;;;;;5.78;3.75;;;12.60;99.90;;;;;;5053742;28;20020;-75
2023/05/03 09:58:46;;;;;;;5.75;4.07;;;12.60;99.90;;;;;;5052975;28;20416;-75
2023/05/03 10:01:13;;;;;;;6.22;2.97;;;12.60;99.90;;;;;;5054047;28;20033;-76
2023/05/03 10:03:45;;;;;;;4.53;3.17;;;12.70;99.90;;;;;;5055443;28;20420;-75
2023/05/03 10:06:34;;;;;;;4.00;2.65;;;12.80;99.90;;;;;;5056512;28;20029;-76
2023/05/03 10:09:32;;;;;;;4.97;2.58;;;12.90;99.90;;;;;;5054046;28;20104;-76
2023/05/03 10:12:01;;;;;;;3.63;2.55;;;13.00;99.90;;;;;;5020216;28;20400;-76
2023/05/03 10:14:27;;;;;;;4.05;2.60;;;13.10;99.90;;;;;;5053845;28;20029;-76
2023/05/03 10:17:25;;;;;;;4.47;2.70;;;13.10;99.90;;;;;;5054054;28;20021;-76
2023/05/03 10:20:21;;;;;;;5.18;2.50;;;13.20;99.90;;;;;;5053834;28;20021;-76
2023/05/03 10:23:08;;;;;;;4.43;2.40;;;13.30;99.90;;;;;;5053792;28;20017;-76
2023/05/03 10:25:36;;;;;;;5.50;2.58;;;13.40;99.90;;;;;;5051274;28;20448;-76
2023/05/03 10:28:07;;;;;;;3.38;2.10;;;13.40;99.90;;;;;;5052179;28;20029;-76
2023/05/03 10:30:33;;;;;;;3.80;2.30;;;13.50;99.90;;;;;;5053468;28;20029;-76
2023/05/03 10:33:20;;;;;;;2.60;1.92;;;13.50;99.90;;;;;;5052249;28;20039;-76
2023/05/03 10:35:51;;;;;;;3.10;2.30;;;13.60;99.90;;;;;;5061363;23;20057;-75
2023/05/03 10:38:25;;;;;;;3.58;2.35;;;13.70;99.90;;;;;;5052919;28;20111;-76
2023/05/03 10:40:51;;;;;;;3.17;2.30;;;13.80;99.90;;;;;;5052934;28;20536;-75
2023/05/03 10:43:29;;;;;;;4.65;2.20;;;14.00;99.90;;;;;;5046366;28;20054;-75
2023/05/03 10:46:00;;;;;;;3.42;2.50;;;14.00;99.90;;;;;;5051176;28;20500;-75
2023/05/03 10:48:27;;;;;;;5.03;2.50;;;14.20;99.90;;;;;;5061379;28;20029;-75
2023/05/03 10:50:55;;;;;;;3.60;2.38;;;14.40;99.90;;;;;;5061445;28;20389;-75
2023/05/03 10:53:48;;;;;;;3.38;2.10;;;14.60;99.90;;;;;;5054263;28;20449;-75
2023/05/03 10:56:14;;;;;;;3.88;2.15;;;14.70;99.90;;;;;;5051735;28;20037;-75
2023/05/03 10:58:45;;;;;;;2.92;2.03;;;14.80;99.90;;;;;;5060707;28;20060;-75
2023/05/03 11:01:12;;;;;;;;;;;14.80;99.90;;;;;;5054207;28;20052;-75
2023/05/03 11:04:05;;;;;;;3.60;2.20;;;15.00;99.90;;;;;;5053912;28;19944;-75
2023/05/03 11:06:34;;;;;;;7.03;2.47;;;15.10;99.90;;;;;;5046539;28;20384;-75
2023/05/03 11:09:03;;;;;;;3.13;2.30;;;15.10;99.90;;;;;;5053321;28;20029;-75
2023/05/03 11:11:30;;;;;;;3.05;2.10;;;15.20;99.90;;;;;;5053257;28;20036;-75
2023/05/03 11:13:56;;;;;;;3.67;1.98;;;15.20;99.90;;;;;;5053593;28;20024;-75
2023/05/03 11:16:22;;;;;;;3.20;1.85;;;15.20;99.90;;;;;;5050402;28;20067;-75
2023/05/03 11:18:48;;;;;;;3.30;2.25;;;15.10;99.90;;;;;;5052096;28;20025;-75
2023/05/03 11:21:14;;;;;;;3.42;2.17;;;15.20;99.90;;;;;;5053331;28;20045;-75
2023/05/03 11:23:41;;;;;;;3.38;2.10;;;15.30;99.90;;;;;;5053275;28;20131;-75
2023/05/03 11:26:08;;;;;;;2.50;2.08;;;15.20;99.90;;;;;;5053501;28;20025;-75
2023/05/03 11:28:37;;;;;;;3.25;2.00;;;15.20;99.90;;;;;;5052081;28;20111;-75
2023/05/03 11:31:05;;;;;;;4.47;2.08;;;15.40;99.90;;;;;;5050932;28;20040;-75
2023/05/03 11:33:33;;;;;;;2.65;2.10;;;15.70;99.90;;;;;;5051428;28;20021;-75
2023/05/03 11:36:02;;;;;;;4.50;2.00;;;15.80;99.90;;;;;;5052352;28;20393;-75
2023/05/03 11:38:30;;;;;;;3.72;2.50;;;15.80;99.90;;;;;;5055837;28;20021;-75
2023/05/03 11:40:56;;;;;;;3.25;2.28;;;15.90;99.90;;;;;;5054669;28;20106;-75
2023/05/03 11:43:22;;;;;;;2.90;2.08;;;16.10;99.90;;;;;;5055037;28;20033;-75
2023/05/03 11:45:51;;;;;;;4.30;2.33;;;16.30;99.90;;;;;;5051980;28;20034;-75
2023/05/03 11:48:16;;;;;;;2.72;1.80;;;16.40;99.90;;;;;;5054559;28;20092;-74
2023/05/03 11:50:47;;;;;;;4.57;1.92;;;16.40;99.90;;;;;;5055198;28;20039;-75
2023/05/03 11:53:17;;;;;;;3.47;1.95;;;16.20;99.90;;;;;;5056576;28;20029;-75
2023/05/03 11:55:47;;;;;;;4.10;1.88;;;16.10;99.90;;;;;;5056010;28;20076;-75
2023/05/03 11:58:13;;;;;;;2.65;1.73;;;16.00;99.90;;;;;;5056381;28;20039;-75
2023/05/03 12:00:44;;;;;;;3.63;2.17;;;16.10;99.90;;;;;;5055401;28;20033;-75
2023/05/03 12:03:10;;;;;;;3.23;2.37;;;16.30;99.90;;;;;;5056193;28;20025;-75
2023/05/03 12:05:35;;;;;;;2.78;1.63;;;16.50;99.90;;;;;;5056048;28;20021;-76
2023/05/03 12:08:01;;;;;;;3.67;2.35;;;16.70;99.90;;;;;;5055958;28;20115;-76
2023/05/03 12:10:32;;;;;;;2.95;1.88;;;16.80;99.90;;;;;;5056047;28;20037;-76
2023/05/03 12:12:58;;;;;;;3.58;2.10;;;17.00;99.90;;;;;;5055696;28;20059;-76
2023/05/03 12:15:44;;;;;;;3.38;1.85;;;17.20;99.90;;;;;;5036083;28;20026;-76
2023/05/03 12:18:11;;;;;;;3.35;2.00;;;17.20;97.20;;;;;;5036440;28;20014;-76
2023/05/03 12:20:38;;;;;;;4.05;2.78;;;16.90;95.30;;;;;;5038331;28;20066;-76
2023/05/03 12:23:07;;;;;;;3.97;2.50;;;16.50;96.30;;;;;;5042159;28;20041;-75
2023/05/03 12:25:35;;;;;;;3.80;2.17;;;16.30;96.60;;;;;;5059625;28;20029;-76
2023/05/03 12:28:03;;;;;;;3.03;1.95;;;16.20;98.10;;;;;;5056026;28;20064;-76
2023/05/03 12:30:30;;;;;;;3.08;1.92;;;16.20;98.00;;;;;;5056354;28;20484;-76
2023/05/03 12:32:55;;;;;;;4.03;2.22;;;16.10;98.80;;;;;;5056265;28;20044;-77
2023/05/03 12:35:22;;;;;;;4.18;2.17;;;16.10;99.30;;;;;;5055796;28;20497;-76
2023/05/03 12:37:49;;;;;;;2.90;1.88;;;16.20;98.80;;;;;;5054848;28;20029;-76
2023/05/03 12:40:16;;;;;;;3.90;2.38;;;16.40;97.50;;;;;;5058050;28;20052;-76
2023/05/03 12:42:42;;;;;;;2.90;2.25;;;16.40;98.00;;;;;;5056285;28;20028;-76
2023/05/03 12:45:10;;;;;;;3.40;2.53;;;16.30;98.50;;;;;;5057613;28;20025;-76
2023/05/03 12:47:38;;;;;;;3.00;2.30;;;16.10;99.20;;;;;;5056946;28;20075;-76
2023/05/03 12:50:04;;;;;;;2.97;2.13;;;16.00;99.90;;;;;;5057250;28;20033;-77
2023/05/03 12:52:33;;;;;;;2.92;2.22;;;16.00;99.70;;;;;;5056657;28;20038;-74
2023/05/03 12:54:58;;;;;;;3.45;2.33;;;16.00;97.70;;;;;;5055047;28;20029;-75